Time;durP1;ratioP1;P1;durP2;ratioP2;P2;SDS_P1;SDS_P2;PMS_P1;PMS_P2;Temp;Humidity;BMP_temperature;BMP_pressure;BME280_temperature;BME280_humidity;BME280_pressure;Samples;Min_cycle;Max_cycle;Signal;HPM_P1;HPM_P2
2023/10/30 00:00:34;;;;;;;16.13;3.70;;;;;;;9.81;100.00;99759.56;5043281;28;20029;-78
2023/10/30 00:03:03;;;;;;;12.45;2.97;;;;;;;9.82;100.00;99752.53;5030362;28;20045;-78
2023/10/30 00:05:29;;;;;;;15.40;3.20;;;;;;;9.81;100.00;99761.38;5031025;28;20501;-78
2023/10/30 00:07:55;;;;;;;15.43;3.33;;;;;;;9.82;100.00;99763.84;5049767;28;20021;-78
2023/10/30 00:10:20;;;;;;;13.48;3.05;;;;;;;9.81;100.00;99772.72;5051550;28;20033;-78
2023/10/30 00:12:46;;;;;;;15.75;3.08;;;;;;;9.80;100.00;99763.16;5049396;28;20033;-78
2023/10/30 00:15:11;;;;;;;15.23;3.08;;;;;;;9.80;100.00;99768.41;5051153;28;20043;-78
2023/10/30 00:17:36;;;;;;;12.52;3.22;;;;;;;9.79;100.00;99769.38;5032387;28;20032;-78
2023/10/30 00:20:02;;;;;;;16.40;3.70;;;;;;;9.82;100.00;99776.16;5033648;28;20029;-78
2023/10/30 00:22:28;;;;;;;14.50;3.28;;;;;;;9.81;100.00;99782.38;5050912;28;20029;-78
2023/10/30 00:24:53;;;;;;;14.43;3.20;;;;;;;9.79;100.00;99779.06;5050749;28;20493;-78
2023/10/30 00:27:19;;;;;;;14.02;3.03;;;;;;;9.83;100.00;99797.03;5032818;28;20083;-78
2023/10/30 00:29:44;;;;;;;13.70;3.00;;;;;;;9.82;100.00;99798.00;5051131;28;20104;-78
2023/10/30 00:32:10;;;;;;;18.02;3.53;;;;;;;9.82;100.00;99803.25;5050902;28;20017;-78
2023/10/30 00:34:35;;;;;;;10.10;2.85;;;;;;;9.83;100.00;99796.22;5051912;28;20032;-78
2023/10/30 00:37:01;;;;;;;16.35;3.35;;;;;;;9.80;100.00;99807.81;5032195;28;20511;-79
2023/10/30 00:39:30;;;;;;;13.32;3.50;;;;;;;9.81;100.00;99803.41;5050989;28;20065;-78
2023/10/30 00:41:55;;;;;;;12.80;3.13;;;;;;;9.78;100.00;99804.50;5050890;28;20028;-78
2023/10/30 00:44:20;;;;;;;11.85;3.47;;;;;;;9.81;100.00;99804.22;5049345;28;20490;-78
2023/10/30 00:46:46;;;;;;;15.73;3.30;;;;;;;9.81;100.00;99813.91;5049078;28;20025;-78
2023/10/30 00:49:11;;;;;;;16.38;3.30;;;;;;;9.79;100.00;99814.03;5048278;28;20024;-78
2023/10/30 00:51:36;;;;;;;13.52;2.80;;;;;;;9.82;100.00;99820.81;5048003;28;20029;-78
2023/10/30 00:54:02;;;;;;;16.05;3.05;;;;;;;9.82;100.00;99820.81;5048739;28;20033;-78
2023/10/30 00:56:27;;;;;;;16.13;3.15;;;;;;;9.81;100.00;99827.88;5049162;28;20044;-78
2023/10/30 00:58:52;;;;;;;14.40;3.17;;;;;;;9.82;100.00;99831.34;5048700;28;20021;-78
2023/10/30 01:01:18;;;;;;;13.05;3.03;;;;;;;9.83;100.00;99839.06;5032968;28;20031;-78
2023/10/30 01:03:44;;;;;;;16.58;3.20;;;;;;;9.82;100.00;99832.16;5049212;28;20102;-78
2023/10/30 01:06:09;;;;;;;15.35;3.20;;;;;;;9.83;100.00;99839.06;5049409;28;20025;-78
2023/10/30 01:08:35;;;;;;;11.02;3.13;;;;;;;9.85;100.00;99839.78;5051610;28;20094;-78
2023/10/30 01:11:00;;;;;;;11.32;3.00;;;;;;;9.86;100.00;99844.06;5047748;28;20029;-77
2023/10/30 01:13:26;;;;;;;14.10;3.20;;;;;;;9.86;100.00;99854.56;5050142;28;20029;-78
2023/10/30 01:15:55;;;;;;;17.33;3.58;;;;;;;9.86;100.00;99859.00;5049580;28;20565;-78
2023/10/30 01:18:21;;;;;;;14.00;3.17;;;;;;;9.87;100.00;99864.13;5048866;28;20032;-78
2023/10/30 01:20:47;;;;;;;12.05;3.00;;;;;;;9.86;100.00;99856.38;5032752;28;20029;-78
2023/10/30 01:23:14;;;;;;;17.33;3.42;;;;;;;9.89;100.00;99862.19;5049554;28;20045;-78
2023/10/30 01:25:39;;;;;;;15.25;3.60;;;;;;;9.88;100.00;99862.31;5049602;28;20031;-78
2023/10/30 01:28:04;;;;;;;13.43;3.17;;;;;;;9.88;100.00;99855.28;5031370;28;20115;-78
2023/10/30 01:30:30;;;;;;;14.43;3.03;;;;;;;9.88;100.00;99851.81;5048782;28;20029;-78
2023/10/30 01:32:55;;;;;;;13.23;3.38;;;;;;;9.90;100.00;99850.72;5023708;28;20025;-78
2023/10/30 01:35:21;;;;;;;10.85;2.78;;;;;;;9.93;100.00;99854.88;5066324;28;20087;-78
2023/10/30 01:37:46;;;;;;;16.55;3.40;;;;;;;9.94;100.00;99846.84;5049597;28;20021;-78
2023/10/30 01:40:11;;;;;;;17.05;2.85;;;;;;;9.95;100.00;99845.06;5048543;28;20087;-79
2023/10/30 01:42:37;;;;;;;11.20;3.20;;;;;;;9.95;100.00;99852.94;5049899;28;20386;-79
2023/10/30 01:45:02;;;;;;;12.30;2.80;;;;;;;9.95;100.00;99855.56;5049807;28;20111;-79
2023/10/30 01:47:28;;;;;;;11.25;2.80;;;;;;;9.98;100.00;99848.25;5046681;28;20099;-79
2023/10/30 01:49:54;;;;;;;13.23;2.95;;;;;;;9.99;100.00;99854.31;5048717;28;20394;-79
2023/10/30 01:52:21;;;;;;;9.70;2.95;;;;;;;10.00;100.00;99856.00;5031772;28;20346;-79
2023/10/30 01:54:49;;;;;;;15.70;2.97;;;;;;;10.00;100.00;99859.44;5049610;28;20021;-78
2023/10/30 01:57:17;;;;;;;13.88;3.10;;;;;;;9.99;100.00;99856.97;5047872;28;20028;-79
2023/10/30 01:59:43;;;;;;;13.50;2.88;;;;;;;10.00;100.00;99863.88;5048558;28;20029;-78
2023/10/30 02:02:10;;;;;;;14.48;3.03;;;;;;;9.98;100.00;99869.25;5048605;28;20499;-78
2023/10/30 02:04:36;;;;;;;13.02;2.85;;;;;;;9.97;100.00;99862.34;5048168;28;20021;-77
2023/10/30 02:07:03;;;;;;;15.55;3.28;;;;;;;10.00;100.00;99866.50;5047560;28;20029;-78
2023/10/30 02:09:29;;;;;;;15.90;2.83;;;;;;;9.99;100.00;99862.22;5030309;28;20477;-77
2023/10/30 02:11:56;;;;;;;11.52;2.55;;;;;;;10.00;100.00;99862.06;5048579;28;20029;-78
2023/10/30 02:14:21;;;;;;;13.65;2.88;;;;;;;10.02;100.00;99864.59;5047457;28;20414;-78
2023/10/30 02:16:46;;;;;;;11.98;2.83;;;;;;;10.02;100.00;99869.84;5048840;28;20028;-78
2023/10/30 02:19:27;;;;;;;12.02;2.85;;;;;;;10.04;100.00;99867.94;5049189;28;20043;-78
2023/10/30 02:21:54;;;;;;;12.45;3.00;;;;;;;10.04;100.00;99867.94;5048272;28;20485;-78
2023/10/30 02:24:21;;;;;;;12.73;2.70;;;;;;;10.08;100.00;99868.47;5029412;28;20075;-78
2023/10/30 02:26:47;;;;;;;9.77;2.65;;;;;;;10.11;100.00;99863.78;5048088;28;20031;-78
2023/10/30 02:29:13;;;;;;;12.05;2.75;;;;;;;10.11;100.00;99865.59;5048242;28;20070;-78
2023/10/30 02:31:38;;;;;;;13.27;2.88;;;;;;;10.12;100.00;99865.44;5049081;28;20540;-78
2023/10/30 02:34:04;;;;;;;11.90;2.75;;;;;;;10.11;100.00;99868.22;5048841;28;20029;-79
2023/10/30 02:36:29;;;;;;;14.10;3.13;;;;;;;10.11;100.00;99860.34;5046749;28;20048;-77
2023/10/30 02:38:54;;;;;;;8.52;2.20;;;;;;;10.11;100.00;99857.69;5047782;28;20037;-79
2023/10/30 02:41:20;;;;;;;11.57;2.67;;;;;;;10.11;100.00;99857.69;5046319;28;20036;-78
2023/10/30 02:43:45;;;;;;;8.82;2.30;;;;;;;10.09;100.00;99855.22;5030565;28;20082;-78
2023/10/30 02:46:11;;;;;;;10.35;2.50;;;;;;;10.08;100.00;99842.19;5030493;28;20701;-78
2023/10/30 02:48:36;;;;;;;12.20;2.70;;;;;;;10.08;100.00;99847.47;5047481;28;20029;-78
2023/10/30 02:51:02;;;;;;;14.25;2.72;;;;;;;10.07;100.00;99848.44;5047308;28;20027;-78
2023/10/30 02:53:27;;;;;;;12.90;2.60;;;;;;;10.07;100.00;99851.06;5030656;28;20502;-78
2023/10/30 02:55:52;;;;;;;11.60;2.35;;;;;;;10.06;100.00;99852.84;5048276;28;20029;-78
2023/10/30 02:58:18;;;;;;;11.32;2.88;;;;;;;10.05;100.00;99852.03;5047178;28;20045;-78
2023/10/30 03:00:43;;;;;;;11.43;2.78;;;;;;;10.06;100.00;99855.47;5047859;28;20471;-79
2023/10/30 03:03:09;;;;;;;12.85;2.88;;;;;;;10.09;100.00;99846.50;5037015;28;20543;-79
2023/10/30 03:05:35;;;;;;;13.57;2.90;;;;;;;10.07;100.00;99846.63;5026085;28;20025;-78
2023/10/30 03:08:01;;;;;;;13.70;2.97;;;;;;;10.09;100.00;99849.13;5046663;28;20087;-78
2023/10/30 03:10:27;;;;;;;17.77;3.08;;;;;;;10.10;100.00;99850.78;5032061;28;20052;-79
2023/10/30 03:12:52;;;;;;;13.02;2.53;;;;;;;10.10;100.00;99856.03;5039407;28;20514;-78
2023/10/30 03:15:18;;;;;;;11.13;2.90;;;;;;;10.10;100.00;99861.28;5049025;28;20060;-79
2023/10/30 03:17:43;;;;;;;11.45;2.70;;;;;;;10.11;100.00;99860.34;5047181;28;20036;-79
2023/10/30 03:20:09;;;;;;;15.10;2.80;;;;;;;10.11;100.00;99866.41;5048058;28;20402;-78
2023/10/30 03:22:34;;;;;;;10.38;2.63;;;;;;;10.10;100.00;99864.75;5031149;28;20032;-78
2023/10/30 03:25:00;;;;;;;12.98;3.08;;;;;;;10.08;100.00;99869.31;5048481;28;20017;-78
2023/10/30 03:27:25;;;;;;;13.68;3.05;;;;;;;10.09;100.00;99873.59;5047832;28;20040;-78
2023/10/30 03:29:51;;;;;;;12.82;2.60;;;;;;;10.09;100.00;99870.97;5046762;28;20035;-78
2023/10/30 03:32:16;;;;;;;12.13;2.90;;;;;;;10.08;100.00;99874.56;5046029;28;20033;-78
2023/10/30 03:34:42;;;;;;;9.98;2.53;;;;;;;10.05;100.00;99873.03;5028316;28;20080;-78
2023/10/30 03:37:08;;;;;;;11.57;2.50;;;;;;;10.05;100.00;99865.16;5043328;28;20048;-79
2023/10/30 03:39:34;;;;;;;12.90;2.80;;;;;;;10.04;100.00;99860.88;5035726;28;20037;-78
2023/10/30 03:42:00;;;;;;;12.90;3.25;;;;;;;10.02;100.00;99865.44;5043289;28;20110;-78
2023/10/30 03:44:26;;;;;;;10.85;3.00;;;;;;;9.99;100.00;99860.41;5046883;28;20029;-78
2023/10/30 03:46:52;;;;;;;12.05;2.60;;;;;;;10.00;100.00;99867.34;5047048;28;20514;-78
2023/10/30 03:49:17;;;;;;;13.27;2.78;;;;;;;9.99;100.00;99867.47;5048296;28;20025;-78
2023/10/30 03:51:43;;;;;;;16.40;3.60;;;;;;;9.99;100.00;99859.59;5047304;28;20712;-78
2023/10/30 03:54:08;;;;;;;15.88;2.90;;;;;;;9.99;100.00;99868.28;5047438;28;20107;-78
2023/10/30 03:56:34;;;;;;;12.65;2.42;;;;;;;9.98;100.00;99871.06;5027787;28;20120;-78
2023/10/30 03:59:02;;;;;;;11.15;2.58;;;;;;;9.98;100.00;99866.63;5030160;28;20037;-79
2023/10/30 04:01:28;;;;;;;12.60;2.78;;;;;;;9.98;100.00;99866.63;5048562;28;20478;-78
2023/10/30 04:03:53;;;;;;;15.02;3.20;;;;;;;9.97;100.00;99856.25;5050252;28;20095;-79
2023/10/30 04:06:18;;;;;;;12.75;2.80;;;;;;;9.97;100.00;99867.59;5051696;28;20086;-79
2023/10/30 04:08:44;;;;;;;12.27;2.92;;;;;;;9.94;100.00;99865.25;5051081;28;20021;-78
2023/10/30 04:11:12;;;;;;;12.48;2.70;;;;;;;9.94;100.00;99861.78;5057581;28;20044;-78
2023/10/30 04:13:37;;;;;;;13.05;2.75;;;;;;;9.92;100.00;99864.53;5032527;28;20479;-77
2023/10/30 04:16:03;;;;;;;12.07;3.05;;;;;;;9.91;100.00;99860.25;5050331;28;20043;-77
2023/10/30 04:18:28;;;;;;;12.00;2.65;;;;;;;9.90;100.00;99858.59;5051728;28;20403;-78
2023/10/30 04:20:54;;;;;;;8.85;2.10;;;;;;;9.90;100.00;99855.97;5049886;28;20124;-78
2023/10/30 04:23:19;;;;;;;11.32;2.80;;;;;;;9.88;100.00;99862.31;5051282;28;20459;-77
2023/10/30 04:25:44;;;;;;;15.25;3.03;;;;;;;9.87;100.00;99860.66;5034027;28;20028;-78
2023/10/30 04:28:10;;;;;;;12.20;2.70;;;;;;;9.87;100.00;99861.50;5051316;28;20027;-77
2023/10/30 04:30:35;;;;;;;11.00;2.78;;;;;;;9.86;100.00;99865.09;5053534;28;20021;-77
2023/10/30 04:33:01;;;;;;;10.63;2.78;;;;;;;9.84;100.00;99867.00;5051007;28;20033;-77
2023/10/30 04:35:26;;;;;;;17.98;2.92;;;;;;;9.85;100.00;99871.31;5050357;28;20033;-77
2023/10/30 04:37:52;;;;;;;12.50;2.60;;;;;;;9.82;100.00;99863.69;5050204;28;20041;-77
2023/10/30 04:40:17;;;;;;;11.95;2.67;;;;;;;9.81;100.00;99869.91;5050551;28;20087;-77
2023/10/30 04:42:43;;;;;;;13.25;2.88;;;;;;;9.81;100.00;99872.53;5048763;28;20673;-77
2023/10/30 04:45:08;;;;;;;13.85;3.00;;;;;;;9.80;100.00;99872.66;5050434;28;20032;-78
2023/10/30 04:47:33;;;;;;;11.60;2.60;;;;;;;9.76;100.00;99864.22;5050898;28;20017;-77
2023/10/30 04:50:02;;;;;;;13.15;2.58;;;;;;;9.74;100.00;99869.59;5048053;28;20601;-78
2023/10/30 04:52:28;;;;;;;11.77;2.88;;;;;;;9.74;100.00;99866.16;5050688;28;20020;-78
2023/10/30 04:54:53;;;;;;;13.68;3.33;;;;;;;9.74;100.00;99871.41;5050875;28;20017;-78
2023/10/30 04:57:18;;;;;;;9.35;2.40;;;;;;;9.76;100.00;99861.59;5032368;28;20488;-78
2023/10/30 04:59:44;;;;;;;12.30;2.60;;;;;;;9.75;100.00;99857.31;5048253;28;20052;-78
2023/10/30 05:02:09;;;;;;;11.45;2.50;;;;;;;9.74;100.00;99858.28;5047842;28;20063;-78
2023/10/30 05:04:35;;;;;;;13.48;2.88;;;;;;;9.71;100.00;99861.16;5031476;28;20117;-78
2023/10/30 05:07:00;;;;;;;12.05;2.50;;;;;;;9.69;100.00;99858.66;5050264;28;20039;-78
2023/10/30 05:09:25;;;;;;;16.95;3.60;;;;;;;9.70;100.00;99859.50;5050527;28;20016;-78
2023/10/30 05:11:50;;;;;;;10.30;2.55;;;;;;;9.70;100.00;99859.50;5048042;28;20436;-77
2023/10/30 05:14:16;;;;;;;10.55;2.53;;;;;;;9.67;100.00;99860.59;5048711;28;20016;-77
2023/10/30 05:16:41;;;;;;;13.43;3.10;;;;;;;9.65;100.00;99867.78;5049922;28;20104;-77
2023/10/30 05:19:07;;;;;;;15.40;2.60;;;;;;;9.64;100.00;99866.13;5048443;28;20037;-77
2023/10/30 05:21:32;;;;;;;12.10;2.58;;;;;;;9.65;100.00;99878.28;5049701;28;20025;-78
2023/10/30 05:23:57;;;;;;;15.73;3.42;;;;;;;9.61;100.00;99860.31;5051288;28;20079;-78
2023/10/30 05:26:23;;;;;;;17.02;3.10;;;;;;;9.60;100.00;99866.47;5049509;28;20054;-77
2023/10/30 05:28:48;;;;;;;12.13;2.90;;;;;;;9.55;100.00;99855.53;5049662;28;20074;-77
2023/10/30 05:31:13;;;;;;;12.60;2.70;;;;;;;9.57;100.00;99856.25;5033033;28;20033;-79
2023/10/30 05:33:38;;;;;;;13.18;2.63;;;;;;;9.55;100.00;99847.66;5048557;28;20093;-78
2023/10/30 05:36:04;;;;;;;12.65;3.05;;;;;;;9.53;100.00;99845.19;5049470;28;20079;-78
2023/10/30 05:38:29;;;;;;;12.73;3.03;;;;;;;9.52;100.00;99846.13;5047436;28;20028;-78
2023/10/30 05:40:55;;;;;;;16.70;3.45;;;;;;;9.52;100.00;99845.31;5049779;28;20091;-78
2023/10/30 05:43:21;;;;;;;16.42;3.08;;;;;;;9.50;100.00;99852.47;5049378;28;20029;-78
2023/10/30 05:45:49;;;;;;;12.27;2.60;;;;;;;9.47;100.00;99852.75;5028905;28;20037;-77
2023/10/30 05:48:15;;;;;;;12.07;2.85;;;;;;;9.48;100.00;99854.41;5049412;28;20032;-78
2023/10/30 05:50:41;;;;;;;13.07;3.10;;;;;;;9.45;100.00;99854.69;5049053;28;20036;-77
2023/10/30 05:53:06;;;;;;;12.48;2.33;;;;;;;9.42;100.00;99851.34;5046586;28;20538;-78
2023/10/30 05:55:32;;;;;;;14.35;3.13;;;;;;;9.42;100.00;99847.91;5047356;28;20486;-78
2023/10/30 05:57:57;;;;;;;13.88;3.72;;;;;;;9.40;100.00;99850.66;5049546;28;20054;-78
2023/10/30 06:00:23;;;;;;;12.90;2.55;;;;;;;9.38;100.00;99849.13;5048056;28;20051;-78
2023/10/30 06:02:49;;;;;;;12.90;2.70;;;;;;;9.36;100.00;99851.88;5049191;28;20127;-78
2023/10/30 06:05:15;;;;;;;13.50;2.83;;;;;;;9.36;100.00;99840.53;5031700;28;20480;-78
2023/10/30 06:07:41;;;;;;;14.48;3.20;;;;;;;9.34;100.00;99843.31;5047991;28;20502;-78
2023/10/30 06:10:08;;;;;;;11.27;2.78;;;;;;;9.29;100.00;99840.25;5054894;28;20158;-78
2023/10/30 06:12:33;;;;;;;13.73;3.08;;;;;;;9.29;100.00;99847.28;5045300;28;20036;-78
2023/10/30 06:14:58;;;;;;;12.63;2.50;;;;;;;9.27;100.00;99842.16;5046698;28;20033;-77
2023/10/30 06:17:24;;;;;;;14.50;3.20;;;;;;;9.26;100.00;99845.75;5049903;28;20402;-77
2023/10/30 06:19:50;;;;;;;8.93;2.65;;;;;;;9.24;100.00;99852.09;5044979;28;20386;-78
2023/10/30 06:22:15;;;;;;;15.55;3.10;;;;;;;9.21;100.00;99866.31;5041912;28;20033;-77
2023/10/30 06:24:40;;;;;;;13.60;2.97;;;;;;;9.22;100.00;99867.13;5048997;28;20013;-78
2023/10/30 06:27:06;;;;;;;14.30;2.90;;;;;;;9.17;100.00;99870.13;5049210;28;20021;-78
2023/10/30 06:29:32;;;;;;;16.00;3.15;;;;;;;9.16;100.00;99876.31;5048819;28;20492;-78
2023/10/30 06:31:58;;;;;;;14.75;3.20;;;;;;;9.17;100.00;99875.38;5030174;28;20052;-78
2023/10/30 06:34:23;;;;;;;15.57;2.85;;;;;;;9.17;100.00;99890.28;5047156;28;20032;-78
2023/10/30 06:36:49;;;;;;;15.60;3.50;;;;;;;9.15;100.00;99890.41;5046510;28;20036;-78
2023/10/30 06:39:19;;;;;;;15.05;2.83;;;;;;;9.13;100.00;99892.31;5049610;28;20112;-78
2023/10/30 06:41:45;;;;;;;13.63;3.10;;;;;;;9.14;100.00;99901.88;5048856;28;20033;-78
2023/10/30 06:44:10;;;;;;;12.80;3.08;;;;;;;9.08;100.00;99900.59;5046378;28;20070;-78
2023/10/30 06:46:35;;;;;;;7.85;2.45;;;;;;;9.13;100.00;99904.63;5044698;28;20082;-78
2023/10/30 06:49:01;;;;;;;14.05;3.03;;;;;;;9.11;100.00;99905.59;5045746;28;20114;-78
2023/10/30 06:51:26;;;;;;;13.65;2.90;;;;;;;9.07;100.00;99903.34;5050040;28;20021;-78
2023/10/30 06:53:52;;;;;;;15.55;3.05;;;;;;;9.10;100.00;99898.66;5048055;28;20614;-78
2023/10/30 06:56:17;;;;;;;15.48;3.20;;;;;;;9.07;100.00;99903.34;5029456;28;20025;-78
2023/10/30 06:58:42;;;;;;;10.77;2.92;;;;;;;9.12;100.00;99901.16;5047676;28;20159;-78
2023/10/30 07:01:08;;;;;;;19.63;3.55;;;;;;;9.15;100.00;99914.03;5047718;28;20021;-79
2023/10/30 07:03:33;;;;;;;12.68;2.80;;;;;;;9.16;100.00;99907.81;5043218;28;20056;-79
2023/10/30 07:05:59;;;;;;;18.77;3.10;;;;;;;9.18;100.00;99911.16;5028732;28;20026;-79
2023/10/30 07:08:24;;;;;;;14.05;3.08;;;;;;;9.18;100.00;99903.28;5028016;28;20092;-79
2023/10/30 07:10:50;;;;;;;15.30;3.45;;;;;;;9.21;100.00;99908.28;5009671;28;20024;-78
2023/10/30 07:13:15;;;;;;;15.25;3.35;;;;;;;9.23;100.00;99909.00;5027318;28;20021;-79
2023/10/30 07:15:41;;;;;;;15.13;3.20;;;;;;;9.26;100.00;99905.28;5016748;28;20561;-77
2023/10/30 07:18:06;;;;;;;16.60;3.45;;;;;;;9.28;100.00;99906.81;5024879;28;20033;-77
2023/10/30 07:20:31;;;;;;;14.40;3.28;;;;;;;9.30;100.00;99918.03;5018701;28;20075;-77
2023/10/30 07:22:57;;;;;;;14.85;2.95;;;;;;;9.34;100.00;99913.34;5029126;28;20084;-78
2023/10/30 07:25:22;;;;;;;21.50;3.35;;;;;;;9.37;100.00;99907.84;5042016;28;20056;-78
2023/10/30 07:27:48;;;;;;;14.88;3.28;;;;;;;9.39;100.00;99914.63;5026038;28;20112;-78
2023/10/30 07:30:13;;;;;;;12.65;3.15;;;;;;;9.42;100.00;99929.28;5025986;28;20033;-78
2023/10/30 07:32:39;;;;;;;12.75;2.75;;;;;;;9.45;100.00;99933.44;5024103;28;20030;-78
2023/10/30 07:35:06;;;;;;;15.82;3.20;;;;;;;9.45;100.00;99930.81;5018711;28;20545;-78
2023/10/30 07:37:33;;;;;;;17.90;3.30;;;;;;;9.51;100.00;99930.28;5046718;28;20083;-78
2023/10/30 07:39:59;;;;;;;12.43;2.80;;;;;;;9.56;100.00;99941.25;5032578;28;20075;-78
2023/10/30 07:42:25;;;;;;;14.88;3.17;;;;;;;9.60;100.00;99935.59;5014087;28;20033;-78
2023/10/30 07:44:50;;;;;;;11.77;3.33;;;;;;;9.65;100.00;99941.31;5013064;28;20543;-78
2023/10/30 07:47:15;;;;;;;12.85;3.03;;;;;;;9.67;100.00;99942.03;5030335;28;20021;-77
2023/10/30 07:49:41;;;;;;;14.15;3.03;;;;;;;9.70;100.00;99933.88;5030820;28;20103;-77
2023/10/30 07:52:06;;;;;;;15.02;2.55;;;;;;;9.75;100.00;99938.75;5025891;28;20026;-77
2023/10/30 07:54:32;;;;;;;14.52;3.15;;;;;;;9.81;100.00;99925.06;5032663;28;20545;-77
2023/10/30 07:56:57;;;;;;;15.57;3.17;;;;;;;9.87;100.00;99929.81;5033395;28;20034;-76
2023/10/30 07:59:22;;;;;;;12.52;2.92;;;;;;;9.89;100.00;99935.75;5023820;28;20498;-76
2023/10/30 08:01:50;;;;;;;11.55;3.00;;;;;;;9.95;100.00;99926.50;5014106;28;20030;-77
2023/10/30 08:04:15;;;;;;;15.45;3.22;;;;;;;9.98;100.00;99932.31;5049594;28;20023;-76
2023/10/30 08:06:40;;;;;;;16.23;3.58;;;;;;;10.02;100.00;99927.66;5050134;28;20116;-78
2023/10/30 08:09:08;;;;;;;12.15;2.60;;;;;;;10.05;100.00;99936.13;5051508;28;20467;-79
2023/10/30 08:11:34;;;;;;;15.35;2.88;;;;;;;10.11;100.00;99941.81;5032347;28;20025;-79
2023/10/30 08:13:59;;;;;;;16.48;2.78;;;;;;;10.19;100.00;99944.59;5039447;28;20025;-79
2023/10/30 08:16:25;;;;;;;15.05;3.25;;;;;;;10.25;100.00;99934.41;5040719;28;20029;-79
2023/10/30 08:18:51;;;;;;;17.65;3.08;;;;;;;10.31;100.00;99933.03;5068332;28;20392;-79
2023/10/30 08:21:16;;;;;;;17.23;3.45;;;;;;;10.40;100.00;99937.47;5056318;28;20048;-78
2023/10/30 08:23:41;;;;;;;10.98;2.88;;;;;;;10.49;100.00;99936.69;5062099;28;20491;-78
2023/10/30 08:26:07;;;;;;;20.42;3.35;;;;;;;10.60;100.00;99939.19;5046525;28;20099;-78
2023/10/30 08:28:33;;;;;;;13.48;2.90;;;;;;;10.70;100.00;99943.63;5045467;28;20025;-78
2023/10/30 08:30:58;;;;;;;13.43;3.22;;;;;;;10.78;100.00;99956.94;5034906;28;20056;-78
2023/10/30 08:33:24;;;;;;;12.45;2.90;;;;;;;10.85;100.00;99958.09;5050676;28;20074;-78
2023/10/30 08:35:49;;;;;;;14.30;3.13;;;;;;;10.88;100.00;99952.53;5068493;28;20513;-79
2023/10/30 08:38:14;;;;;;;14.00;3.10;;;;;;;10.94;100.00;99947.56;5056113;28;20028;-78
2023/10/30 08:40:40;;;;;;;12.43;2.60;;;;;;;11.00;100.00;99940.91;5052376;28;20437;-78
2023/10/30 08:43:05;;;;;;;15.15;2.97;;;;;;;11.07;100.00;99943.81;5048372;28;20155;-79
2023/10/30 08:45:33;;;;;;;15.85;3.10;;;;;;;11.13;100.00;99930.09;5032899;28;20036;-78
2023/10/30 08:48:02;;;;;;;13.60;3.30;;;;;;;11.19;100.00;99940.88;5049648;28;20035;-79
2023/10/30 08:50:27;;;;;;;10.05;2.90;;;;;;;11.27;100.00;99943.69;5048734;28;20039;-79
2023/10/30 08:52:52;;;;;;;13.25;3.20;;;;;;;11.36;100.00;99949.06;5048625;28;20017;-79
2023/10/30 08:55:18;;;;;;;11.32;2.38;;;;;;;11.40;100.00;99948.66;5032096;28;20040;-79
2023/10/30 08:57:43;;;;;;;15.10;3.08;;;;;;;11.46;100.00;99949.88;5035624;28;20024;-78
2023/10/30 09:00:10;;;;;;;11.40;2.60;;;;;;;11.54;100.00;99950.00;5036935;28;20056;-79
2023/10/30 09:02:35;;;;;;;10.25;2.55;;;;;;;11.62;100.00;99944.88;5048111;28;20057;-78
2023/10/30 09:05:01;;;;;;;10.95;2.40;;;;;;;11.63;100.00;99954.44;5053012;28;20044;-77
2023/10/30 09:07:27;;;;;;;13.48;2.60;;;;;;;11.71;100.00;99945.81;5051043;28;20032;-77
2023/10/30 09:09:52;;;;;;;11.15;2.75;;;;;;;11.72;100.00;99961.50;5041498;28;20033;-78
2023/10/30 09:12:17;;;;;;;13.73;3.05;;;;;;;11.78;100.00;99957.47;5050727;28;20295;-78
2023/10/30 09:14:43;;;;;;;11.02;2.65;;;;;;;11.84;100.00;99963.00;5050492;28;20021;-78
2023/10/30 09:17:09;;;;;;;9.38;2.40;;;;;;;11.84;100.00;99952.47;5048205;28;20495;-77
2023/10/30 09:19:35;;;;;;;10.30;2.58;;;;;;;11.89;100.00;99944.94;5032874;28;20099;-77
2023/10/30 09:22:01;;;;;;;12.98;2.55;;;;;;;11.96;100.00;99949.63;5047868;28;20036;-77
2023/10/30 09:24:26;;;;;;;12.60;2.72;;;;;;;12.01;100.00;99943.00;5049030;28;20017;-77
2023/10/30 09:26:52;;;;;;;11.23;2.90;;;;;;;12.03;100.00;99934.94;5049011;28;20501;-78
2023/10/30 09:29:17;;;;;;;15.02;3.00;;;;;;;12.01;100.00;99934.22;5048964;28;20025;-78
2023/10/30 09:31:44;;;;;;;11.63;2.38;;;;;;;12.05;100.00;99936.44;5047288;28;20025;-77
2023/10/30 09:34:09;;;;;;;9.70;2.40;;;;;;;12.05;100.00;99936.44;5049946;28;20119;-77
2023/10/30 09:36:35;;;;;;;12.02;2.42;;;;;;;12.08;100.00;99937.97;5048199;28;20104;-77
2023/10/30 09:39:00;;;;;;;8.52;2.17;;;;;;;12.09;100.00;99940.44;5048576;28;20024;-77
2023/10/30 09:41:27;;;;;;;13.05;2.83;;;;;;;12.08;100.00;99944.06;5050331;28;20032;-77
2023/10/30 09:43:53;;;;;;;10.45;2.50;;;;;;;12.11;100.00;99937.66;5047409;28;20028;-77
2023/10/30 09:46:25;;;;;;;12.15;2.50;;;;;;;12.16;100.00;99940.69;5030225;28;20498;-77
2023/10/30 09:48:51;;;;;;;8.13;2.05;;;;;;;12.17;100.00;99926.53;5047999;28;20029;-77
2023/10/30 09:51:17;;;;;;;10.75;2.58;;;;;;;12.16;100.00;99935.41;5047545;28;20028;-77
2023/10/30 09:53:43;;;;;;;11.20;2.38;;;;;;;12.18;100.00;99928.19;5047747;28;20040;-77
2023/10/30 09:56:08;;;;;;;11.98;2.55;;;;;;;12.19;100.00;99920.13;5049839;28;20032;-78
2023/10/30 09:58:37;;;;;;;9.65;2.33;;;;;;;12.18;100.00;99917.66;5048495;28;20047;-78
2023/10/30 10:01:03;;;;;;;9.48;2.17;;;;;;;12.18;100.00;99912.38;5051420;28;20047;-77
2023/10/30 10:03:29;;;;;;;7.65;2.15;;;;;;;12.22;100.00;99911.94;5028579;28;20045;-78
2023/10/30 10:05:59;;;;;;;9.10;2.60;;;;;;;12.24;100.00;99912.59;5043464;28;20032;-78
2023/10/30 10:08:25;;;;;;;10.38;2.50;;;;;;;12.32;100.00;99896.03;5031797;28;20098;-78
2023/10/30 10:10:55;;;;;;;13.95;2.83;;;;;;;12.37;100.00;99906.16;5043908;28;20082;-78
2023/10/30 10:13:21;;;;;;;11.20;2.30;;;;;;;12.40;100.00;99901.41;5029888;28;20029;-78
2023/10/30 10:15:46;;;;;;;9.90;2.55;;;;;;;12.45;100.00;99900.97;5048450;28;20028;-77
2023/10/30 10:18:25;;;;;;;12.40;3.35;;;;;;;12.52;100.00;99907.31;5049015;28;20557;-77
2023/10/30 10:21:22;;;;;;;7.82;2.17;;;;;;;12.54;100.00;99914.09;5047263;28;20479;-77
2023/10/30 10:23:47;;;;;;;7.30;2.20;;;;;;;12.55;100.00;99905.22;5046891;28;20039;-77
2023/10/30 10:26:16;;;;;;;10.60;2.17;;;;;;;12.62;100.00;99909.88;5048397;28;20036;-77
2023/10/30 10:28:48;;;;;;;8.00;2.17;;;;;;;12.65;100.00;99917.50;5048506;28;20036;-77
2023/10/30 10:31:14;;;;;;;7.68;2.10;;;;;;;12.64;100.00;99908.75;5047314;28;20642;-77
2023/10/30 10:33:40;;;;;;;9.95;2.30;;;;;;;12.69;100.00;99905.66;5045906;28;20860;-77
2023/10/30 10:36:06;;;;;;;8.00;2.20;;;;;;;12.72;100.00;99900.09;5045604;28;20112;-77
2023/10/30 10:38:32;;;;;;;11.63;2.10;;;;;;;12.76;100.00;99912.00;5048382;28;20024;-77
2023/10/30 10:40:58;;;;;;;7.50;1.83;;;;;;;12.79;100.00;99911.69;5031384;28;20020;-77
2023/10/30 10:43:26;;;;;;;6.90;2.03;;;;;;;12.80;100.00;99902.78;5048246;28;20031;-78
2023/10/30 10:45:53;;;;;;;8.95;2.22;;;;;;;12.82;100.00;99903.50;5047040;28;20037;-77
2023/10/30 10:48:21;;;;;;;12.45;2.10;;;;;;;12.83;100.00;99906.00;5047704;28;20142;-77
2023/10/30 10:50:47;;;;;;;7.38;1.85;;;;;;;12.88;100.00;99910.81;5047782;28;20024;-77
2023/10/30 10:53:13;;;;;;;10.07;2.25;;;;;;;12.89;100.00;99907.19;5030568;28;20025;-77
2023/10/30 10:55:44;;;;;;;6.85;1.70;;;;;;;12.89;100.00;99898.44;5046714;28;20020;-76
2023/10/30 10:58:12;;;;;;;9.45;1.95;;;;;;;12.94;100.00;99898.81;5030488;28;20494;-76
2023/10/30 11:00:44;;;;;;;8.82;1.85;;;;;;;12.97;100.00;99893.22;5026638;28;20049;-76
2023/10/30 11:03:10;;;;;;;8.30;1.80;;;;;;;13.05;100.00;99896.75;5047439;28;20473;-78
2023/10/30 11:05:37;;;;;;;13.98;2.40;;;;;;;13.03;100.00;99897.91;5046746;28;20025;-77
2023/10/30 11:08:24;;;;;;;10.00;2.20;;;;;;;13.05;100.00;99894.13;5048433;28;20024;-76
2023/10/30 11:11:22;;;;;;;5.72;1.60;;;;;;;13.07;100.00;99889.50;5045980;28;20367;-77
2023/10/30 11:14:05;;;;;;;7.45;1.70;;;;;;;13.07;100.00;99886.88;5012728;28;20044;-76
2023/10/30 11:16:43;;;;;;;9.55;1.77;;;;;;;13.09;100.00;99876.16;5046128;28;20041;-77